createdAt,value
2019-02-16T00:00:42.790Z,39.30
2019-02-16T00:03:12.249Z,39.30
2019-02-16T00:05:41.674Z,39.30
2019-02-16T00:08:11.143Z,39.30
2019-02-16T00:10:40.570Z,39.30
2019-02-16T00:13:10.028Z,39.30
2019-02-16T00:15:39.463Z,39.20
2019-02-16T00:18:08.964Z,39.30
2019-02-16T00:20:38.406Z,39.20
2019-02-16T00:23:07.857Z,39.20
2019-02-16T00:25:37.299Z,39.20
2019-02-16T00:28:06.775Z,39.20
2019-02-16T00:30:36.187Z,39.10
2019-02-16T00:33:05.649Z,39.20
2019-02-16T00:35:35.085Z,39.10
2019-02-16T00:38:04.535Z,39.10
2019-02-16T00:40:33.967Z,39.10
2019-02-16T00:43:03.451Z,39.10
2019-02-16T00:45:32.882Z,39.10
2019-02-16T00:48:02.335Z,39.10
2019-02-16T00:50:31.770Z,39.10
2019-02-16T00:53:01.147Z,39.00
2019-02-16T00:55:30.583Z,39.00
2019-02-16T00:58:00.041Z,39.00
2019-02-16T01:00:29.496Z,39.40
2019-02-16T01:02:58.938Z,39.00
2019-02-16T01:05:28.294Z,39.00
2019-02-16T01:07:57.730Z,39.00
2019-02-16T01:10:27.109Z,39.00
2019-02-16T01:12:56.568Z,39.00
2019-02-16T01:15:25.998Z,39.00
2019-02-16T01:17:55.371Z,39.00
2019-02-16T01:20:24.726Z,39.00
2019-02-16T01:22:54.188Z,38.90
2019-02-16T01:25:23.625Z,39.00
2019-02-16T01:27:53.002Z,38.90
2019-02-16T01:30:22.446Z,38.90
2019-02-16T01:32:51.899Z,38.90
2019-02-16T01:35:21.331Z,39.00
2019-02-16T01:37:50.786Z,38.90
2019-02-16T01:40:20.215Z,38.90
2019-02-16T01:42:49.671Z,39.00
2019-02-16T01:45:19.110Z,38.90
2019-02-16T01:47:48.565Z,39.00
2019-02-16T01:50:18.002Z,38.90
2019-02-16T01:52:47.383Z,39.00
2019-02-16T01:55:16.823Z,38.90
2019-02-16T01:57:46.298Z,38.90
2019-02-16T02:00:15.731Z,38.90
2019-02-16T02:02:45.193Z,38.80
2019-02-16T02:05:14.690Z,38.80
2019-02-16T02:07:44.142Z,39.00
2019-02-16T02:10:13.490Z,38.90
2019-02-16T02:12:42.877Z,38.90
2019-02-16T02:15:12.331Z,38.90
2019-02-16T02:17:41.770Z,38.80
2019-02-16T02:20:11.243Z,38.80
2019-02-16T02:22:40.679Z,38.80
2019-02-16T02:25:11.003Z,38.80
2019-02-16T02:27:40.435Z,38.80
2019-02-16T02:30:10.853Z,38.80
2019-02-16T02:32:40.268Z,38.70
2019-02-16T02:35:09.729Z,38.80
2019-02-16T02:37:39.153Z,38.80
2019-02-16T02:40:08.609Z,38.70
2019-02-16T02:42:38.039Z,38.80
2019-02-16T02:45:09.931Z,38.80
2019-02-16T02:47:39.363Z,38.70
2019-02-16T02:50:08.814Z,38.80
2019-02-16T02:52:38.179Z,38.80
2019-02-16T02:55:08.021Z,38.80
2019-02-16T02:57:37.380Z,38.80
2019-02-16T03:00:09.443Z,38.80
2019-02-16T03:02:38.838Z,39.00
2019-02-16T03:05:09.927Z,38.80
2019-02-16T03:07:39.369Z,38.80
2019-02-16T03:10:08.820Z,38.80
2019-02-16T03:12:38.256Z,38.80
2019-02-16T03:15:08.052Z,38.90
2019-02-16T03:17:37.474Z,38.80
2019-02-16T03:20:07.101Z,38.80
2019-02-16T03:23:14.279Z,38.80
2019-02-16T03:25:49.870Z,38.80
2019-02-16T03:28:40.418Z,38.80
2019-02-16T03:31:48.099Z,38.80
2019-02-16T03:34:44.850Z,38.90
2019-02-16T03:37:20.399Z,38.80
2019-02-16T03:39:49.167Z,38.90
2019-02-16T03:42:18.450Z,38.80
2019-02-16T03:44:47.822Z,38.90
2019-02-16T03:47:17.349Z,38.90
2019-02-16T03:49:47.057Z,38.90
2019-02-16T03:52:16.581Z,39.00
2019-02-16T03:54:45.991Z,39.00
2019-02-16T03:57:15.435Z,38.90
2019-02-16T03:59:44.884Z,38.90
2019-02-16T04:02:14.319Z,38.90
2019-02-16T04:04:43.774Z,39.00
2019-02-16T04:07:13.293Z,38.90
2019-02-16T04:09:42.666Z,38.90
2019-02-16T04:12:12.119Z,38.90
2019-02-16T04:14:41.574Z,38.90
2019-02-16T04:17:11.012Z,38.80
2019-02-16T04:19:40.463Z,38.80
2019-02-16T04:22:09.898Z,38.30
2019-02-16T04:24:39.356Z,38.80
2019-02-16T04:27:08.785Z,38.80
2019-02-16T04:29:38.160Z,38.80
2019-02-16T04:32:07.595Z,38.80
2019-02-16T04:34:37.050Z,38.80
2019-02-16T04:37:06.408Z,38.80
2019-02-16T04:39:35.879Z,38.80
2019-02-16T04:42:05.234Z,38.80
2019-02-16T04:44:34.671Z,38.80
2019-02-16T04:47:04.168Z,38.80
2019-02-16T04:49:33.601Z,38.80
2019-02-16T04:52:03.059Z,38.80
2019-02-16T04:54:32.493Z,38.80
2019-02-16T04:57:01.942Z,38.50
2019-02-16T04:59:31.295Z,38.80
2019-02-16T05:02:00.755Z,38.80
2019-02-16T05:04:30.187Z,38.80
2019-02-16T05:06:59.643Z,38.80
2019-02-16T05:09:29.097Z,38.90
2019-02-16T05:11:58.553Z,38.80
2019-02-16T05:14:27.980Z,38.80
2019-02-16T05:16:57.442Z,38.80
2019-02-16T05:19:26.877Z,38.80
2019-02-16T05:21:56.342Z,38.80
2019-02-16T05:24:25.693Z,38.80
2019-02-16T05:26:55.150Z,38.80
2019-02-16T05:29:24.586Z,38.80
2019-02-16T05:31:54.030Z,38.80
2019-02-16T05:34:23.463Z,38.80
2019-02-16T05:36:52.919Z,38.80
2019-02-16T05:39:22.350Z,38.80
2019-02-16T05:41:51.811Z,38.80
2019-02-16T05:44:21.243Z,38.80
2019-02-16T05:46:50.698Z,38.80
2019-02-16T05:49:20.051Z,38.80
2019-02-16T05:51:49.511Z,38.80
2019-02-16T05:54:18.949Z,38.80
2019-02-16T05:56:48.405Z,38.80
2019-02-16T05:59:17.832Z,38.80
2019-02-16T06:01:53.546Z,38.80
2019-02-16T06:04:18.277Z,38.80
2019-02-16T06:06:47.725Z,38.80
2019-02-16T06:09:17.155Z,38.80
2019-02-16T06:11:46.686Z,38.80
2019-02-16T06:14:16.119Z,38.80
2019-02-16T06:16:45.583Z,38.80
2019-02-16T06:19:15.014Z,38.80
2019-02-16T06:21:44.476Z,38.80
2019-02-16T06:24:13.899Z,38.80
2019-02-16T06:26:43.270Z,38.80
2019-02-16T06:29:12.751Z,38.70
2019-02-16T06:31:42.212Z,38.80
2019-02-16T06:34:11.563Z,38.70
2019-02-16T06:36:41.027Z,38.60
2019-02-16T06:39:10.456Z,38.70
2019-02-16T06:41:39.915Z,38.70
2019-02-16T06:44:09.352Z,38.70
2019-02-16T06:46:38.802Z,38.70
2019-02-16T06:49:08.230Z,38.70
2019-02-16T06:51:37.607Z,38.70
2019-02-16T06:54:07.038Z,38.70
2019-02-16T06:56:40.506Z,38.70
2019-02-16T06:59:09.936Z,38.70
2019-02-16T07:01:39.390Z,38.50
2019-02-16T07:04:08.818Z,38.30
2019-02-16T07:06:38.298Z,38.20
2019-02-16T07:09:07.924Z,37.90
2019-02-16T07:11:37.374Z,37.90
2019-02-16T07:14:06.727Z,38.00
2019-02-16T07:16:43.564Z,38.00
2019-02-16T07:19:17.571Z,38.10
2019-02-16T07:21:47.027Z,38.20
2019-02-16T07:24:16.517Z,38.20
2019-02-16T07:26:45.975Z,38.20
2019-02-16T07:29:15.403Z,38.20
2019-02-16T07:31:44.877Z,38.20
2019-02-16T07:34:14.299Z,38.20
2019-02-16T07:36:44.860Z,38.30
2019-02-16T07:39:14.295Z,38.30
2019-02-16T07:41:43.747Z,38.60
2019-02-16T07:44:17.543Z,38.30
2019-02-16T07:46:48.647Z,38.30
2019-02-16T07:49:23.188Z,38.50
2019-02-16T07:51:57.298Z,38.20
2019-02-16T07:54:35.118Z,38.20
2019-02-16T07:57:06.141Z,38.30
2019-02-16T07:59:40.186Z,38.20
2019-02-16T08:04:58.350Z,38.20
2019-02-16T08:07:35.086Z,38.30
2019-02-16T08:10:20.886Z,38.20
2019-02-16T08:12:54.556Z,38.40
2019-02-16T08:15:37.804Z,38.60
2019-02-16T08:18:08.894Z,38.80
2019-02-16T08:20:42.950Z,38.80
2019-02-16T08:23:19.775Z,39.00
2019-02-16T08:25:53.546Z,39.20
2019-02-16T08:28:24.634Z,38.00
2019-02-16T08:30:55.629Z,38.10
2019-02-16T08:33:42.975Z,37.60
2019-02-16T08:36:16.663Z,37.60
2019-02-16T08:38:56.531Z,37.70
2019-02-16T08:41:43.874Z,37.90
2019-02-16T08:44:27.210Z,37.90
2019-02-16T08:46:59.355Z,37.90
2019-02-16T08:49:30.461Z,37.90
2019-02-16T08:52:01.549Z,37.90
2019-02-16T08:54:42.007Z,37.90
2019-02-16T08:57:29.471Z,37.80
2019-02-16T09:00:09.514Z,37.40
2019-02-16T09:02:46.122Z,37.50
2019-02-16T09:05:29.159Z,36.20
2019-02-16T09:08:00.246Z,35.50
2019-02-16T09:10:47.683Z,34.80
2019-02-16T09:13:18.800Z,34.20
2019-02-16T09:16:02.046Z,33.80
2019-02-16T09:18:40.127Z,33.60
2019-02-16T09:21:15.105Z,33.60
2019-02-16T09:23:58.923Z,33.60
2019-02-16T09:26:41.319Z,33.70
2019-02-16T09:29:29.203Z,33.80
2019-02-16T09:32:00.278Z,34.10
2019-02-16T09:34:31.386Z,34.10
2019-02-16T09:37:08.382Z,34.20
2019-02-16T09:39:39.407Z,34.30
2019-02-16T09:42:19.446Z,34.50
2019-02-16T09:45:08.734Z,34.60
2019-02-16T09:47:42.385Z,34.60
2019-02-16T09:50:13.550Z,34.70
2019-02-16T09:52:56.620Z,34.80
2019-02-16T09:55:37.015Z,35.00
2019-02-16T09:58:17.259Z,35.00
2019-02-16T10:00:48.387Z,35.10
2019-02-16T10:03:25.686Z,35.30
2019-02-16T10:05:59.290Z,35.40
2019-02-16T10:08:45.558Z,35.40
2019-02-16T10:11:33.251Z,35.50
2019-02-16T10:14:04.260Z,35.60
2019-02-16T10:16:39.213Z,35.70
2019-02-16T10:19:13.233Z,35.70
2019-02-16T10:22:00.588Z,35.80
2019-02-16T10:24:40.761Z,35.90
2019-02-16T10:27:14.766Z,35.90
2019-02-16T10:30:02.099Z,36.00
2019-02-16T10:32:35.911Z,36.00
2019-02-16T10:35:16.467Z,36.10
2019-02-16T10:37:59.486Z,36.10
2019-02-16T10:40:30.603Z,36.20
2019-02-16T10:43:07.680Z,36.20
2019-02-16T10:45:48.040Z,36.30
2019-02-16T10:48:21.818Z,36.30
2019-02-16T10:50:58.930Z,36.40
2019-02-16T10:53:35.646Z,36.40
2019-02-16T10:56:06.743Z,36.50
2019-02-16T10:58:37.822Z,36.50
2019-02-16T11:01:08.928Z,36.50
2019-02-16T11:03:40.006Z,36.50
2019-02-16T11:06:14.042Z,36.50
2019-02-16T11:09:01.616Z,36.50
2019-02-16T11:11:42.937Z,36.50
2019-02-16T11:14:30.295Z,36.60
2019-02-16T11:17:04.527Z,36.50
2019-02-16T11:19:35.518Z,36.50
2019-02-16T11:22:09.206Z,36.50
2019-02-16T11:24:56.542Z,36.60
2019-02-16T11:27:45.766Z,36.60
2019-02-16T11:30:33.455Z,36.60
2019-02-16T11:33:04.472Z,36.60
2019-02-16T11:35:41.304Z,36.60
2019-02-16T11:38:16.420Z,36.70
2019-02-16T11:40:50.318Z,36.70
2019-02-16T11:43:27.478Z,36.70
2019-02-16T11:46:01.311Z,36.60
2019-02-16T11:48:35.565Z,36.70
2019-02-16T11:51:21.895Z,36.70
2019-02-16T11:53:58.734Z,36.70
2019-02-16T11:56:37.256Z,36.70
2019-02-16T11:59:11.170Z,36.70
2019-02-16T12:01:42.238Z,36.70
2019-02-16T12:04:22.086Z,36.70
2019-02-16T12:06:55.804Z,36.70
2019-02-16T12:09:36.309Z,36.70
2019-02-16T12:12:07.407Z,36.70
2019-02-16T12:14:56.795Z,36.70
2019-02-16T12:17:34.003Z,36.70
2019-02-16T12:20:08.094Z,36.70
2019-02-16T12:22:48.411Z,36.70
2019-02-16T12:25:19.483Z,36.70
2019-02-16T12:27:50.586Z,36.80
2019-02-16T12:30:38.067Z,36.70
2019-02-16T12:33:25.358Z,36.80
2019-02-16T12:35:56.359Z,36.70
2019-02-16T12:38:39.679Z,36.80
2019-02-16T12:41:16.854Z,36.80
2019-02-16T12:44:04.611Z,36.80
2019-02-16T12:46:38.328Z,36.80
2019-02-16T12:49:12.350Z,36.80
2019-02-16T12:51:58.579Z,36.80
2019-02-16T12:54:29.682Z,36.80
2019-02-16T12:57:00.826Z,36.80
2019-02-16T12:59:31.859Z,36.90
2019-02-16T13:02:14.721Z,36.80
2019-02-16T13:04:48.775Z,36.80
2019-02-16T13:07:34.975Z,36.80
2019-02-16T13:10:19.985Z,36.80
2019-02-16T13:12:50.982Z,36.80
2019-02-16T13:15:24.667Z,36.80
2019-02-16T13:18:07.883Z,37.10
2019-02-16T13:20:38.981Z,36.80
2019-02-16T13:23:15.800Z,36.80
2019-02-16T13:25:46.899Z,37.20
2019-02-16T13:28:29.893Z,36.80
2019-02-16T13:31:09.953Z,37.40
2019-02-16T13:33:50.110Z,36.80
2019-02-16T13:36:21.108Z,36.70
2019-02-16T13:39:08.378Z,36.80
2019-02-16T13:41:39.446Z,36.80
2019-02-16T13:44:10.483Z,36.70
2019-02-16T13:46:47.497Z,36.80
2019-02-16T13:49:18.595Z,36.80
2019-02-16T13:51:49.681Z,36.60
2019-02-16T13:54:29.751Z,36.60
2019-02-16T13:57:03.751Z,38.20
2019-02-16T13:59:43.687Z,36.60
2019-02-16T14:02:30.143Z,36.40
2019-02-16T14:05:01.174Z,35.90
2019-02-16T14:07:44.394Z,35.80
2019-02-16T14:10:21.441Z,36.10
2019-02-16T14:13:01.335Z,36.00
2019-02-16T14:15:34.926Z,36.30
2019-02-16T14:18:05.350Z,36.70
2019-02-16T14:20:34.796Z,37.00
2019-02-16T14:23:04.291Z,37.10
2019-02-16T14:25:43.824Z,37.40
2019-02-16T14:28:10.110Z,37.60
2019-02-16T14:30:39.579Z,37.60
2019-02-16T14:33:09.020Z,36.70
2019-02-16T14:35:38.492Z,33.70
2019-02-16T14:38:16.503Z,31.70
2019-02-16T14:40:45.915Z,31.60
2019-02-16T14:43:15.366Z,31.90
2019-02-16T14:45:44.822Z,31.90
2019-02-16T14:48:14.259Z,32.40
2019-02-16T14:50:43.717Z,32.60
2019-02-16T14:53:13.155Z,33.10
2019-02-16T14:55:51.592Z,33.70
2019-02-16T14:58:13.650Z,33.80
2019-02-16T15:00:43.183Z,34.30
2019-02-16T15:03:12.658Z,34.60
2019-02-16T15:05:42.043Z,35.00
2019-02-16T15:08:11.482Z,35.30
2019-02-16T15:10:40.935Z,35.30
2019-02-16T15:13:11.560Z,35.60
2019-02-16T15:15:41.050Z,35.70
2019-02-16T15:18:10.478Z,35.90
2019-02-16T15:20:39.931Z,36.10
2019-02-16T15:23:09.358Z,36.30
2019-02-16T15:25:38.732Z,36.60
2019-02-16T15:28:08.091Z,36.60
2019-02-16T15:30:37.541Z,36.70
2019-02-16T15:33:07.034Z,36.70
2019-02-16T15:35:36.490Z,36.90
2019-02-16T15:38:05.843Z,37.10
2019-02-16T15:40:35.578Z,37.30
2019-02-16T15:43:04.932Z,37.20
2019-02-16T15:45:34.366Z,38.50
2019-02-16T15:48:03.745Z,37.70
2019-02-16T15:50:33.187Z,37.70
2019-02-16T15:53:02.637Z,37.60
2019-02-16T15:55:32.071Z,37.50
2019-02-16T15:58:01.581Z,38.00
2019-02-16T16:00:30.985Z,39.10
2019-02-16T16:03:00.450Z,39.00
2019-02-16T16:05:29.994Z,38.00
2019-02-16T16:08:09.851Z,36.70
2019-02-16T16:10:50.094Z,37.80
2019-02-16T16:13:21.210Z,34.00
2019-02-16T16:16:11.011Z,31.30
2019-02-16T16:18:44.862Z,29.10
2019-02-16T16:21:15.975Z,26.40
2019-02-16T16:23:47.107Z,25.90
2019-02-16T16:26:21.199Z,26.60
2019-02-16T16:29:00.571Z,26.40
2019-02-16T16:31:30.626Z,25.10
2019-02-16T16:34:18.126Z,26.30
2019-02-16T16:36:52.351Z,27.40
2019-02-16T16:39:26.604Z,28.30
2019-02-16T16:41:57.803Z,29.00
2019-02-16T16:44:41.223Z,29.60
2019-02-16T16:47:12.326Z,30.10
2019-02-16T16:49:49.121Z,30.80
2019-02-16T16:52:21.304Z,31.30
2019-02-16T16:54:53.354Z,32.10
2019-02-16T16:57:24.490Z,32.50
2019-02-16T16:59:55.664Z,31.20
2019-02-16T17:02:29.495Z,34.80
2019-02-16T17:05:15.547Z,35.10
2019-02-16T17:07:51.967Z,34.50
2019-02-16T17:10:22.903Z,40.20
2019-02-16T17:12:54.083Z,37.10
2019-02-16T17:15:40.469Z,37.30
2019-02-16T17:18:14.733Z,37.40
2019-02-16T17:20:45.834Z,37.60
2019-02-16T17:23:25.818Z,38.10
2019-02-16T17:25:59.855Z,38.30
2019-02-16T17:28:47.203Z,38.50
2019-02-16T17:31:18.214Z,38.40
2019-02-16T17:33:52.467Z,38.40
2019-02-16T17:36:38.621Z,38.20
2019-02-16T17:39:25.823Z,38.30
2019-02-16T17:41:59.871Z,38.30
2019-02-16T17:44:40.200Z,38.30
2019-02-16T17:47:27.802Z,38.50
2019-02-16T17:50:05.088Z,38.30
2019-02-16T17:52:42.258Z,38.20
2019-02-16T17:55:16.066Z,38.20
2019-02-16T17:57:47.077Z,38.30
2019-02-16T18:00:20.701Z,38.40
2019-02-16T18:03:07.968Z,38.50
2019-02-16T18:05:39.079Z,38.60
2019-02-16T18:08:28.588Z,38.70
2019-02-16T18:11:05.789Z,38.70
2019-02-16T18:13:36.843Z,38.80
2019-02-16T18:16:07.965Z,38.80
2019-02-16T18:18:39.072Z,38.90
2019-02-16T18:21:19.127Z,38.90
2019-02-16T18:23:50.218Z,38.90
2019-02-16T18:26:24.290Z,39.00
2019-02-16T18:29:10.703Z,38.90
2019-02-16T18:31:41.716Z,38.90
2019-02-16T18:34:18.855Z,38.90
2019-02-16T18:36:52.717Z,39.00
2019-02-16T18:39:38.678Z,38.90
2019-02-16T18:42:15.033Z,39.00
2019-02-16T18:45:02.110Z,39.10
2019-02-16T18:47:49.584Z,39.10
2019-02-16T18:50:23.357Z,39.20
2019-02-16T18:52:54.434Z,39.90
2019-02-16T18:55:41.782Z,39.20
2019-02-16T18:58:18.778Z,38.90
2019-02-16T19:00:55.815Z,38.80
2019-02-16T19:03:26.903Z,39.10
2019-02-16T19:05:57.935Z,39.00
2019-02-16T19:08:35.019Z,39.70
2019-02-16T19:11:07.504Z,39.10
2019-02-16T19:13:44.419Z,39.10
2019-02-16T19:16:31.775Z,39.10
2019-02-16T19:19:21.023Z,39.10
2019-02-16T19:21:58.040Z,39.20
2019-02-16T19:24:29.134Z,39.10
2019-02-16T19:27:00.235Z,39.20
2019-02-16T19:29:31.321Z,39.10
2019-02-16T19:32:02.437Z,39.20
2019-02-16T19:34:33.613Z,39.20
2019-02-16T19:37:07.670Z,39.20
2019-02-16T19:39:42.675Z,39.30
2019-02-16T19:42:19.915Z,39.30
2019-02-16T19:44:51.423Z,39.40
2019-02-16T19:47:28.660Z,39.30
2019-02-16T19:50:17.754Z,39.20
2019-02-16T19:52:54.972Z,39.00
2019-02-16T19:55:35.303Z,39.00
2019-02-16T19:58:06.396Z,39.10
2019-02-16T20:00:40.793Z,39.10
2019-02-16T20:03:27.843Z,39.00
2019-02-16T20:06:01.773Z,39.10
2019-02-16T20:08:38.646Z,39.10
2019-02-16T20:11:15.323Z,39.10
2019-02-16T20:13:46.415Z,39.10
2019-02-16T20:16:17.519Z,39.10
2019-02-16T20:19:00.855Z,39.20
2019-02-16T20:21:35.132Z,39.20
2019-02-16T20:24:22.833Z,39.30
2019-02-16T20:26:56.649Z,39.30
2019-02-16T20:29:27.743Z,39.30
2019-02-16T20:32:10.986Z,39.30
2019-02-16T20:34:44.999Z,39.20
2019-02-16T20:37:16.117Z,39.30
2019-02-16T20:39:50.268Z,39.40
2019-02-16T20:42:24.513Z,39.40
2019-02-16T20:45:13.987Z,39.50
2019-02-16T20:47:48.110Z,39.50
2019-02-16T20:50:24.868Z,39.60
2019-02-16T20:52:58.654Z,39.60
2019-02-16T20:55:29.743Z,39.70
2019-02-16T20:58:03.931Z,39.60
2019-02-16T21:00:37.963Z,39.60
2019-02-16T21:03:09.067Z,39.70
2019-02-16T21:05:43.156Z,39.70
2019-02-16T21:08:30.810Z,39.60
2019-02-16T21:11:04.933Z,39.70
2019-02-16T21:13:39.175Z,39.70
2019-02-16T21:16:10.259Z,39.70
2019-02-16T21:18:41.366Z,39.60
2019-02-16T21:21:12.479Z,39.60
2019-02-16T21:23:43.578Z,39.60
2019-02-16T21:26:36.560Z,39.70
2019-02-16T21:29:12.730Z,39.60
2019-02-16T21:31:43.492Z,39.70
2019-02-16T21:34:17.355Z,39.60
2019-02-16T21:36:48.444Z,39.60
2019-02-16T21:39:19.620Z,39.60
2019-02-16T21:42:07.289Z,39.60
2019-02-16T21:44:50.615Z,39.60
2019-02-16T21:47:39.124Z,39.60
2019-02-16T21:50:11.343Z,39.60
2019-02-16T21:52:48.459Z,39.70
2019-02-16T21:55:19.603Z,39.70
2019-02-16T21:58:08.011Z,39.70
2019-02-16T22:00:39.291Z,39.70
2019-02-16T22:03:10.391Z,39.70
2019-02-16T22:05:47.452Z,39.70
2019-02-16T22:08:18.548Z,39.70
2019-02-16T22:11:01.876Z,39.70
2019-02-16T22:13:31.323Z,39.70
2019-02-16T22:16:00.758Z,39.70
2019-02-16T22:18:30.233Z,39.70
2019-02-16T22:20:59.634Z,39.70
2019-02-16T22:23:29.101Z,39.70
2019-02-16T22:25:58.534Z,39.70
2019-02-16T22:28:31.036Z,39.50
2019-02-16T22:30:59.143Z,39.50
2019-02-16T22:33:28.599Z,39.50
2019-02-16T22:35:58.042Z,39.50
2019-02-16T22:38:27.395Z,39.50
2019-02-16T22:40:56.866Z,39.50
2019-02-16T22:43:26.295Z,39.50
2019-02-16T22:45:55.822Z,39.60
2019-02-16T22:48:25.208Z,39.50
2019-02-16T22:50:54.594Z,39.50
2019-02-16T22:53:25.096Z,39.50
2019-02-16T22:55:54.552Z,39.80
2019-02-16T22:58:28.971Z,39.50
2019-02-16T23:00:55.671Z,39.50
2019-02-16T23:03:26.714Z,39.50
2019-02-16T23:05:56.174Z,39.50
2019-02-16T23:08:25.617Z,39.40
2019-02-16T23:10:55.067Z,39.90
2019-02-16T23:13:24.426Z,39.30
2019-02-16T23:15:54.953Z,39.40
2019-02-16T23:18:24.318Z,39.30
2019-02-16T23:20:53.766Z,39.30
2019-02-16T23:23:23.121Z,38.90
2019-02-16T23:25:52.625Z,39.20
2019-02-16T23:28:21.978Z,39.20
2019-02-16T23:30:51.438Z,39.20
2019-02-16T23:33:20.882Z,39.20
2019-02-16T23:35:50.349Z,39.20
2019-02-16T23:38:19.787Z,39.10
2019-02-16T23:40:49.183Z,39.10
2019-02-16T23:43:18.610Z,39.10
2019-02-16T23:45:48.063Z,39.10
2019-02-16T23:48:17.418Z,39.10
2019-02-16T23:50:46.866Z,39.00
2019-02-16T23:53:16.299Z,39.00
2019-02-16T23:55:45.756Z,39.00
2019-02-16T23:58:15.188Z,39.00
